Mirabile, Missouri
Current Conditions -  °F | °C
As of 3:15 AM on Sunday 23 Nov 2014 (Local Time) from KGPH Reporting Station
Overcast Overcast  
Wind Chill: 54°   Ceiling: 1100
Heat Index: 54°   Visibility: 10mi
Dew Point: 50°   Wind: 3mph
Humidity: 88%   Direction: 130°SE
Pressure: 29.63"   Gusts: NA
Location:  39.5693°N, 94.0956°W
Report Text: KGPH 230915Z AUTO 13003KT 10SM OVC011 12/10 A2963 RMK AO2
Loading
Personal Weather Stations






























Interactive Weather Map New forecast layout! Learn more

10-Day Weather Forecast

Advertisements
Track Severe Weather on mobile